Time;durP1;ratioP1;P1;durP2;ratioP2;P2;SDS_P1;SDS_P2;PMS_P1;PMS_P2;Temp;Humidity;BMP_temperature;BMP_pressure;BME280_temperature;BME280_humidity;BME280_pressure;Samples;Min_cycle;Max_cycle;Signal;HPM_P1;HPM_P2
2022/11/29 00:00:39;;;;;;;2.26;1.75;;;;;;;1.55;63.89;102495.63;460012;115;922446;-80
2022/11/29 00:01:43;;;;;;;1.62;1.50;;;;;;;1.55;63.89;102495.63;459928;115;922470;-78
2022/11/29 00:02:46;;;;;;;1.82;1.52;;;;;;;1.52;63.79;102494.03;459940;115;922849;-80
2022/11/29 00:03:49;;;;;;;1.87;1.39;;;;;;;1.51;63.79;102495.00;459935;115;922948;-79
2022/11/29 00:04:53;;;;;;;2.10;1.59;;;;;;;1.49;63.80;102490.72;460175;115;922988;-80
2022/11/29 00:05:56;;;;;;;3.02;1.83;;;;;;;1.49;63.89;102493.41;460783;115;930247;-79
2022/11/29 00:06:59;;;;;;;1.59;1.47;;;;;;;1.47;63.83;102493.50;460836;115;929892;-79
2022/11/29 00:08:03;;;;;;;2.00;1.79;;;;;;;1.47;63.96;102500.70;460982;115;921877;-78
2022/11/29 00:09:10;;;;;;;2.58;1.96;;;;;;;1.47;63.91;102496.19;461002;115;922000;-79
2022/11/29 00:10:13;;;;;;;5.15;2.18;;;;;;;1.47;63.87;102498.02;460806;115;922500;-78
2022/11/29 00:12:40;;;;;;;1.77;1.63;;;;;;;1.47;63.86;102492.64;459732;115;922829;-79
2022/11/29 00:13:44;;;;;;;3.02;1.87;;;;;;;1.44;63.75;102493.70;459960;115;922521;-79
2022/11/29 00:14:47;;;;;;;2.19;1.67;;;;;;;1.42;63.82;102489.42;459817;115;922514;-79
2022/11/29 00:15:50;;;;;;;2.00;1.79;;;;;;;1.39;63.81;102492.31;459911;115;922454;-80
2022/11/29 00:16:58;;;;;;;2.29;1.84;;;;;;;1.39;63.89;102489.62;459901;115;922827;-79
2022/11/29 00:18:01;;;;;;;2.41;2.02;;;;;;;1.37;63.90;102488.89;459731;115;922808;-80
2022/11/29 00:19:04;;;;;;;3.11;1.69;;;;;;;1.36;63.90;102479.11;459921;115;922517;-80
2022/11/29 00:20:09;;;;;;;1.90;1.67;;;;;;;1.36;63.94;102493.41;459821;115;922468;-79
2022/11/29 00:21:12;;;;;;;1.99;1.72;;;;;;;1.36;64.09;102485.34;459726;115;923012;-79
2022/11/29 00:22:15;;;;;;;2.51;1.89;;;;;;;1.37;64.05;102488.89;459916;115;922571;-80
2022/11/29 00:23:19;;;;;;;2.81;1.71;;;;;;;1.37;64.06;102492.45;460159;113;923228;-79
2022/11/29 00:24:22;;;;;;;2.56;1.95;;;;;;;1.36;64.17;102488.03;460589;113;922475;-79
2022/11/29 00:25:25;;;;;;;1.82;1.60;;;;;;;1.39;64.15;102484.25;457370;116;922440;-79
2022/11/29 00:26:29;;;;;;;3.56;1.80;;;;;;;1.40;64.25;102497.59;451658;115;922536;-80
2022/11/29 00:27:33;;;;;;;1.98;1.68;;;;;;;1.40;64.09;102489.52;450055;118;930476;-78
2022/11/29 00:28:36;;;;;;;2.83;1.47;;;;;;;1.39;64.04;102490.48;450232;118;922654;-79
2022/11/29 00:29:40;;;;;;;1.57;1.31;;;;;;;1.38;64.02;102496.83;451402;116;922538;-78
2022/11/29 00:30:43;;;;;;;2.08;1.82;;;;;;;1.35;63.93;102489.00;458154;116;922585;-79
2022/11/29 00:31:46;;;;;;;1.96;1.52;;;;;;;1.33;64.02;102495.43;458179;116;923345;-78
2022/11/29 00:32:49;;;;;;;1.88;1.56;;;;;;;1.32;64.10;102493.73;458084;116;922406;-79
2022/11/29 00:33:53;;;;;;;2.31;1.54;;;;;;;1.32;64.11;102493.73;458126;115;922473;-79
2022/11/29 00:34:56;;;;;;;1.81;1.32;;;;;;;1.31;64.23;102489.33;458077;116;922658;-79
2022/11/29 00:36:01;;;;;;;1.66;1.55;;;;;;;1.32;64.29;102489.23;457909;116;930294;-79
2022/11/29 00:37:04;;;;;;;2.45;1.58;;;;;;;1.33;64.31;102490.92;458134;116;922588;-77
2022/11/29 00:38:07;;;;;;;2.48;1.51;;;;;;;1.34;64.19;102484.58;458215;116;922771;-81
2022/11/29 00:39:11;;;;;;;1.57;1.30;;;;;;;1.35;64.10;102486.30;458134;116;922817;-79
2022/11/29 00:40:14;;;;;;;2.14;1.69;;;;;;;1.35;64.05;102477.37;458067;116;922751;-79
2022/11/29 00:41:18;;;;;;;1.69;1.46;;;;;;;1.32;64.04;102475.79;458117;116;922974;-79
2022/11/29 00:42:21;;;;;;;1.98;1.65;;;;;;;1.33;64.14;102481.99;458038;116;922483;-79
2022/11/29 00:43:24;;;;;;;1.85;1.57;;;;;;;1.33;64.11;102476.62;449835;116;930376;-79
2022/11/29 00:44:27;;;;;;;1.57;1.47;;;;;;;1.33;64.08;102479.31;448279;118;922639;-82
2022/11/29 00:45:30;;;;;;;2.92;1.57;;;;;;;1.31;64.11;102479.44;448278;118;923019;-79
2022/11/29 00:46:33;;;;;;;1.74;1.62;;;;;;;1.29;64.00;102475.98;448246;118;922603;-80
2022/11/29 00:47:36;;;;;;;4.00;1.37;;;;;;;1.27;63.93;102474.40;448244;118;922689;-81
2022/11/29 00:48:40;;;;;;;2.04;1.71;;;;;;;1.24;63.94;102470.95;448183;118;922408;-79
2022/11/29 00:49:43;;;;;;;2.36;1.62;;;;;;;1.23;63.92;102481.80;448242;118;922465;-79
2022/11/29 00:50:46;;;;;;;2.08;1.77;;;;;;;1.20;63.92;102469.45;448283;118;922701;-80
2022/11/29 00:51:49;;;;;;;2.56;1.99;;;;;;;1.19;64.09;102472.23;448200;118;922489;-79
2022/11/29 00:52:52;;;;;;;2.63;1.84;;;;;;;1.20;64.07;102476.66;448264;118;922511;-80
2022/11/29 00:53:55;;;;;;;2.11;1.58;;;;;;;1.19;64.09;102485.67;448261;118;922525;-81
2022/11/29 00:54:58;;;;;;;2.42;1.69;;;;;;;1.19;64.08;102478.47;448234;118;922545;-78
2022/11/29 00:56:03;;;;;;;1.99;1.71;;;;;;;1.17;64.10;102476.84;448186;118;922899;-80
2022/11/29 00:57:06;;;;;;;2.44;1.59;;;;;;;1.16;64.01;102475.98;448217;118;922583;-77
2022/11/29 00:58:10;;;;;;;2.81;1.66;;;;;;;1.13;64.09;102470.84;448497;118;930268;-79
2022/11/29 00:59:13;;;;;;;2.04;1.58;;;;;;;1.12;64.05;102471.80;448571;118;923052;-80
2022/11/29 01:00:17;;;;;;;1.62;1.51;;;;;;;1.09;63.90;102474.72;448690;118;922605;-80
2022/11/29 01:01:21;;;;;;;1.75;1.62;;;;;;;1.06;63.94;102474.92;448453;118;922502;-78
2022/11/29 01:02:24;;;;;;;1.70;1.31;;;;;;;1.03;64.01;102475.15;439974;120;930386;-80
2022/11/29 01:03:28;;;;;;;1.67;1.50;;;;;;;1.02;63.99;102483.30;440487;118;922561;-80
2022/11/29 01:04:31;;;;;;;1.92;1.66;;;;;;;1.02;64.11;102475.24;448484;118;930401;-80
2022/11/29 01:05:34;;;;;;;2.36;1.61;;;;;;;1.00;64.02;102475.34;448673;118;922593;-78
2022/11/29 01:06:37;;;;;;;1.91;1.80;;;;;;;0.96;64.05;102473.84;448572;118;922743;-80
2022/11/29 01:07:41;;;;;;;2.33;1.66;;;;;;;0.95;63.98;102473.94;448545;118;922468;-79
2022/11/29 01:08:45;;;;;;;3.41;1.51;;;;;;;0.93;64.05;102483.95;448507;118;922931;-80
2022/11/29 01:09:48;;;;;;;1.48;1.38;;;;;;;0.91;64.09;102480.50;448615;118;923116;-78
2022/11/29 01:11:03;;;;;;;1.56;1.46;;;;;;;0.88;64.03;102481.59;448654;118;922606;-80
2022/11/29 01:12:07;;;;;;;2.65;1.81;;;;;;;0.87;64.08;102479.86;452541;114;922565;-80
2022/11/29 01:13:11;;;;;;;1.96;1.52;;;;;;;0.85;64.19;102484.47;463317;114;922902;-78
2022/11/29 01:14:14;;;;;;;3.09;1.85;;;;;;;0.84;64.21;102480.06;463292;114;922815;-79
2022/11/29 01:15:17;;;;;;;2.34;1.56;;;;;;;0.82;64.21;102477.50;463381;114;922587;-79
2022/11/29 01:16:21;;;;;;;2.03;1.62;;;;;;;0.83;64.24;102481.88;463370;114;923483;-79
2022/11/29 01:17:24;;;;;;;2.28;1.86;;;;;;;0.86;64.26;102479.96;463324;114;922432;-79
2022/11/29 01:18:29;;;;;;;4.26;1.96;;;;;;;0.88;64.37;102481.59;463349;114;922640;-78
2022/11/29 01:19:32;;;;;;;2.70;1.64;;;;;;;0.89;64.31;102474.36;463267;114;922606;-79
2022/11/29 01:20:35;;;;;;;2.23;1.69;;;;;;;0.91;64.43;102472.44;463340;114;930299;-79
2022/11/29 01:21:38;;;;;;;2.40;1.66;;;;;;;0.93;64.38;102478.58;463389;114;922574;-79
2022/11/29 02:06:32;;;;;;;4.05;1.87;;;;;;;-0.19;67.41;102495.92;477127;108;945245;-71
2022/11/29 02:07:35;;;;;;;3.26;1.93;;;;;;;-0.22;67.26;102481.88;463209;114;922499;-72
2022/11/29 02:08:41;;;;;;;3.09;1.92;;;;;;;-0.15;67.16;102491.22;463200;114;922555;-73
2022/11/29 02:09:44;;;;;;;4.02;1.86;;;;;;;-0.09;66.99;102494.36;463072;114;922530;-72
2022/11/29 02:10:59;;;;;;;3.19;1.89;;;;;;;-0.06;67.04;102496.00;463246;114;922770;-73
2022/11/29 02:12:39;;;;;;;2.25;1.99;;;;;;;-0.03;66.97;102493.11;463082;114;922516;-73
2022/11/29 02:13:58;;;;;;;4.31;2.02;;;;;;;0.00;66.91;102485.71;463044;114;922555;-73
2022/11/29 02:15:08;;;;;;;2.64;1.89;;;;;;;0.02;67.03;102488.30;463196;114;922575;-74
2022/11/29 02:16:26;;;;;;;1.93;1.79;;;;;;;0.03;66.93;102484.66;463059;112;922479;-73
2022/11/29 02:17:39;;;;;;;4.01;1.94;;;;;;;0.04;66.94;102485.53;462718;114;922749;-73
2022/11/29 02:18:57;;;;;;;1.73;1.63;;;;;;;0.06;67.02;102483.59;463095;114;922470;-73
2022/11/29 02:20:35;;;;;;;2.38;1.81;;;;;;;0.08;66.94;102489.72;463120;114;922901;-73
2022/11/29 02:21:45;;;;;;;2.23;1.64;;;;;;;0.07;66.81;102486.17;449858;116;922579;-73
2022/11/29 02:23:23;;;;;;;2.90;1.77;;;;;;;0.16;66.92;102477.55;477174;110;946855;-72
2022/11/29 02:24:29;;;;;;;1.64;1.42;;;;;;;0.06;66.94;102486.27;465626;114;922732;-72
2022/11/29 02:25:59;;;;;;;3.69;1.84;;;;;;;0.06;66.96;102484.45;464883;113;922472;-72
2022/11/29 02:27:23;;;;;;;2.93;2.06;;;;;;;0.08;66.94;102485.22;457427;116;922541;-72
2022/11/29 02:28:33;;;;;;;2.09;1.48;;;;;;;0.08;66.89;102481.68;457452;116;922762;-72
2022/11/29 02:29:56;;;;;;;1.91;1.64;;;;;;;0.07;66.76;102480.81;456742;116;922910;-72
2022/11/29 02:31:14;;;;;;;3.27;1.68;;;;;;;0.08;66.83;102478.99;449608;118;922567;-72
2022/11/29 02:32:54;;;;;;;1.93;1.65;;;;;;;0.09;66.77;102484.27;449649;118;922611;-72
2022/11/29 02:34:10;;;;;;;3.22;1.59;;;;;;;0.10;66.73;102485.99;449607;118;923430;-72
2022/11/29 02:35:38;;;;;;;2.02;1.57;;;;;;;0.11;66.67;102485.00;448644;116;922936;-72
2022/11/29 02:37:05;;;;;;;3.23;1.59;;;;;;;0.12;66.62;102477.83;446704;118;922829;-72
2022/11/29 02:38:30;;;;;;;1.58;1.39;;;;;;;0.10;66.58;102477.09;447125;118;922737;-71
2022/11/29 02:39:40;;;;;;;1.73;1.56;;;;;;;0.08;66.57;102473.63;447439;118;923492;-71
2022/11/29 02:40:46;;;;;;;2.52;1.48;;;;;;;0.04;66.42;102470.30;446475;118;922497;-71
2022/11/29 02:42:14;;;;;;;1.80;1.59;;;;;;;0.03;66.38;102478.44;447560;118;923311;-72
2022/11/29 02:43:21;;;;;;;1.78;1.46;;;;;;;0.02;66.43;102477.58;439321;118;922517;-71
2022/11/29 02:45:42;;;;;;;3.54;1.62;;;;;;;0.12;66.50;102478.69;477070;110;947465;-72
2022/11/29 02:46:46;;;;;;;;;;;;;;;0.02;66.49;102477.58;464471;115;922061;-73
2022/11/29 02:47:53;;;;;;;1.32;1.22;;;;;;;0.03;66.41;102475.75;460446;115;922256;-73
2022/11/29 02:49:15;;;;;;;3.06;1.56;;;;;;;-0.01;66.48;102481.34;460699;115;922748;-73
2022/11/29 02:50:53;;;;;;;1.92;1.74;;;;;;;-0.03;66.50;102480.56;460006;115;922879;-73
2022/11/29 02:52:03;;;;;;;1.82;1.18;;;;;;;-0.04;66.55;102478.84;460760;115;922565;-72
2022/11/29 02:53:36;;;;;;;2.42;1.66;;;;;;;-0.04;66.52;102486.88;460697;115;922752;-72
2022/11/29 02:54:45;;;;;;;2.28;1.67;;;;;;;-0.05;66.41;102487.83;460743;115;922479;-74
2022/11/29 02:55:56;;;;;;;2.18;1.74;;;;;;;-0.07;66.31;102486.23;459737;115;922564;-73
2022/11/29 02:57:03;;;;;;;2.30;1.53;;;;;;;-0.09;66.37;102480.96;459080;115;930324;-74
2022/11/29 02:58:12;;;;;;;1.84;1.58;;;;;;;-0.09;66.47;102478.28;452383;117;922569;-74
2022/11/29 02:59:28;;;;;;;1.86;1.51;;;;;;;-0.08;66.38;102482.69;452564;117;922595;-73
2022/11/29 03:00:34;;;;;;;2.88;1.39;;;;;;;-0.06;66.37;102485.28;451876;117;922813;-73
2022/11/29 03:01:59;;;;;;;1.62;1.36;;;;;;;-0.06;66.42;102488.82;452886;115;922512;-72
2022/11/29 03:03:28;;;;;;;1.81;1.62;;;;;;;-0.06;66.33;102485.28;452568;117;922549;-72
2022/11/29 03:04:37;;;;;;;2.70;1.41;;;;;;;-0.06;66.32;102486.14;452518;117;922478;-73
2022/11/29 03:05:50;;;;;;;2.30;1.47;;;;;;;-0.05;66.33;102486.97;452904;117;922483;-73
2022/11/29 03:07:00;;;;;;;2.54;1.68;;;;;;;-0.04;66.28;102491.38;452509;117;922498;-73
2022/11/29 03:08:18;;;;;;;1.76;1.55;;;;;;;-0.04;66.37;102494.06;452338;117;922429;-73
2022/11/29 03:09:25;;;;;;;1.63;1.42;;;;;;;-0.03;66.33;102491.29;452544;117;922535;-73
2022/11/29 03:10:50;;;;;;;2.92;1.55;;;;;;;-0.02;66.27;102487.66;452884;117;922514;-73
2022/11/29 03:11:56;;;;;;;1.46;1.36;;;;;;;-0.01;66.32;102492.06;452882;117;922553;-73
2022/11/29 03:13:03;;;;;;;1.62;1.51;;;;;;;0.01;66.20;102489.26;451927;117;922688;-72
2022/11/29 03:14:25;;;;;;;2.11;1.54;;;;;;;0.03;66.24;102490.03;452880;117;922875;-72
2022/11/29 03:15:37;;;;;;;2.04;1.65;;;;;;;0.05;66.16;102495.30;452868;117;922578;-73
2022/11/29 03:17:06;;;;;;;1.84;1.66;;;;;;;0.04;66.04;102502.48;443097;119;922483;-73
2022/11/29 03:18:31;;;;;;;2.37;1.38;;;;;;;0.05;65.93;102497.98;452869;117;922754;-72
2022/11/29 03:19:46;;;;;;;1.72;1.29;;;;;;;0.04;66.00;102499.80;452903;117;922574;-73
2022/11/29 03:21:13;;;;;;;1.51;1.41;;;;;;;0.03;65.96;102500.75;452848;115;922488;-73
2022/11/29 03:22:37;;;;;;;4.17;1.67;;;;;;;0.04;65.91;102507.84;452022;117;922869;-73
2022/11/29 03:23:49;;;;;;;1.84;1.54;;;;;;;0.05;65.96;102508.70;451069;116;922545;-73
2022/11/29 03:24:56;;;;;;;1.92;1.59;;;;;;;0.07;66.04;102514.81;460212;115;922510;-73
2022/11/29 03:26:06;;;;;;;2.24;1.95;;;;;;;0.08;65.94;102508.50;458956;115;922568;-73
2022/11/29 03:27:12;;;;;;;1.87;1.43;;;;;;;0.09;65.95;102520.95;452863;117;922933;-72
2022/11/29 03:28:25;;;;;;;2.20;1.64;;;;;;;0.10;65.86;102520.00;452479;117;922584;-72
2022/11/29 03:29:44;;;;;;;2.41;1.76;;;;;;;0.11;65.80;102524.41;452574;117;922525;-72
2022/11/29 03:30:57;;;;;;;2.26;1.63;;;;;;;0.12;65.86;102516.23;452705;117;922527;-72
2022/11/29 03:32:09;;;;;;;2.66;1.62;;;;;;;0.15;65.80;102525.92;457570;115;922806;-72
2022/11/29 03:33:25;;;;;;;2.42;1.77;;;;;;;0.15;65.71;102517.87;460782;115;922563;-72
2022/11/29 03:34:51;;;;;;;2.72;1.88;;;;;;;0.15;65.61;102526.78;460755;115;922630;-73
2022/11/29 03:36:02;;;;;;;2.29;1.49;;;;;;;0.16;65.50;102523.14;460199;115;922526;-73
2022/11/29 03:37:21;;;;;;;2.14;1.64;;;;;;;0.15;65.57;102523.23;460769;115;922591;-73
2022/11/29 03:38:42;;;;;;;1.49;1.37;;;;;;;0.14;65.45;102530.42;460499;115;922484;-73
2022/11/29 03:39:50;;;;;;;;;;;;;;;0.13;65.52;102523.33;464549;115;922167;-73
2022/11/29 03:41:05;;;;;;;2.09;1.77;;;;;;;0.12;65.33;102526.97;460812;115;922475;-73
2022/11/29 03:42:12;;;;;;;1.67;1.43;;;;;;;0.08;65.32;102527.27;459989;115;923032;-73
2022/11/29 03:43:28;;;;;;;2.51;1.74;;;;;;;0.04;65.46;102537.34;460568;115;922489;-73
2022/11/29 03:44:35;;;;;;;2.70;1.31;;;;;;;0.03;65.41;102532.07;460189;115;922570;-73
2022/11/29 03:45:42;;;;;;;2.59;1.73;;;;;;;0.02;65.41;102539.25;460740;115;922375;-72
2022/11/29 03:47:03;;;;;;;1.52;1.42;;;;;;;0.04;65.51;102544.53;460748;115;922634;-72
2022/11/29 03:48:12;;;;;;;1.66;1.56;;;;;;;0.05;65.42;102543.58;460772;115;922433;-72
2022/11/29 03:49:28;;;;;;;2.02;1.50;;;;;;;0.04;65.34;102540.03;460725;115;923113;-73
2022/11/29 03:50:41;;;;;;;2.29;1.71;;;;;;;0.04;65.36;102541.84;460615;114;922608;-73
2022/11/29 03:52:08;;;;;;;4.83;2.05;;;;;;;0.03;65.28;102540.12;460040;115;922486;-73
2022/11/29 03:53:18;;;;;;;2.23;1.66;;;;;;;0.02;65.30;102549.12;460000;115;922469;-73
2022/11/29 03:54:34;;;;;;;2.45;1.73;;;;;;;0.03;65.29;102545.48;460449;115;922599;-73
2022/11/29 03:55:49;;;;;;;2.01;1.69;;;;;;;0.02;65.21;102541.07;459912;115;922418;-73
2022/11/29 03:56:53;;;;;;;1.92;1.73;;;;;;;0.00;65.20;102543.88;460577;115;922688;-73
2022/11/29 03:58:34;;;;;;;2.43;1.79;;;;;;;-0.01;65.18;102542.14;460766;115;922601;-72
2022/11/29 03:59:44;;;;;;;2.29;1.72;;;;;;;-0.01;65.12;102547.52;460680;115;922647;-72
2022/11/29 04:00:51;;;;;;;2.12;1.61;;;;;;;-0.04;65.14;102545.88;460217;115;922491;-73
2022/11/29 04:02:07;;;;;;;2.08;1.87;;;;;;;-0.06;65.11;102539.77;460665;115;922580;-73
2022/11/29 04:03:28;;;;;;;3.37;1.87;;;;;;;-0.05;65.12;102545.96;452018;117;922562;-73
2022/11/29 04:04:38;;;;;;;2.27;2.07;;;;;;;-0.07;65.09;102537.17;442700;119;922754;-72
2022/11/29 04:05:54;;;;;;;2.77;1.91;;;;;;;-0.07;65.18;102545.22;462037;114;922808;-72
2022/11/29 04:07:20;;;;;;;2.29;1.97;;;;;;;-0.07;65.00;102546.09;453169;115;922819;-73
2022/11/29 04:08:46;;;;;;;2.79;2.08;;;;;;;-0.08;65.07;102551.53;460646;115;922564;-73
2022/11/29 04:10:19;;;;;;;1.52;1.42;;;;;;;-0.11;64.95;102539.17;460676;115;922971;-73
2022/11/29 04:11:54;;;;;;;1.93;1.66;;;;;;;-0.13;65.09;102534.89;460658;115;923013;-72
2022/11/29 04:13:25;;;;;;;1.70;1.60;;;;;;;-0.14;64.92;102535.84;460660;115;922589;-72
2022/11/29 04:14:50;;;;;;;2.00;1.74;;;;;;;-0.18;64.96;102539.69;459470;115;922480;-72
2022/11/29 04:16:18;;;;;;;4.70;1.87;;;;;;;-0.20;65.02;102546.95;459076;115;922962;-72
2022/11/29 04:17:47;;;;;;;3.63;1.59;;;;;;;-0.20;65.17;102544.27;460640;115;923236;-72
2022/11/29 04:19:17;;;;;;;2.11;1.87;;;;;;;-0.20;65.10;102547.81;460625;115;922479;-73
2022/11/29 04:20:46;;;;;;;3.17;1.69;;;;;;;-0.22;65.11;102538.99;460637;115;922623;-73
2022/11/29 04:22:09;;;;;;;2.92;1.80;;;;;;;-0.23;65.02;102534.62;460764;115;922618;-73
2022/11/29 04:23:49;;;;;;;1.64;1.49;;;;;;;-0.26;64.95;102539.30;460679;115;923483;-72
2022/11/29 04:24:56;;;;;;;1.83;1.73;;;;;;;-0.30;64.96;102538.64;447439;118;922530;-73
2022/11/29 04:26:18;;;;;;;2.60;1.91;;;;;;;-0.32;65.06;102539.67;441869;119;922891;-72
2022/11/29 04:27:42;;;;;;;1.85;1.60;;;;;;;-0.34;65.01;102538.94;451716;117;922609;-72
2022/11/29 04:29:16;;;;;;;3.88;2.11;;;;;;;-0.36;65.05;102541.70;460638;115;922432;-73
2022/11/29 04:30:24;;;;;;;2.13;1.70;;;;;;;-0.37;65.08;102547.15;460679;115;922550;-73
2022/11/29 04:31:37;;;;;;;2.58;1.83;;;;;;;-0.38;65.11;102540.92;460660;115;922902;-72
2022/11/29 04:33:02;;;;;;;2.36;1.90;;;;;;;-0.39;65.14;102544.59;460652;115;922600;-73
2022/11/29 04:34:21;;;;;;;1.95;1.57;;;;;;;-0.38;65.03;102548.10;460683;115;922574;-73
2022/11/29 04:35:53;;;;;;;2.35;1.55;;;;;;;-0.40;65.12;102550.90;460668;115;922876;-73
2022/11/29 04:37:06;;;;;;;2.74;1.85;;;;;;;-0.38;65.02;102550.78;460665;115;922513;-73
2022/11/29 04:38:27;;;;;;;2.14;1.85;;;;;;;-0.39;65.07;102555.31;460678;115;922589;-72
2022/11/29 04:39:49;;;;;;;2.93;1.50;;;;;;;-0.38;65.06;102558.82;460596;115;922521;-73
2022/11/29 04:41:12;;;;;;;2.58;1.64;;;;;;;-0.39;64.98;102557.12;460643;115;922562;-72
2022/11/29 04:42:28;;;;;;;1.74;1.54;;;;;;;-0.38;65.11;102554.33;456923;115;923160;-72
2022/11/29 04:43:43;;;;;;;2.84;2.06;;;;;;;-0.36;65.08;102556.92;460640;115;922855;-73
2022/11/29 04:44:56;;;;;;;2.22;1.89;;;;;;;-0.37;65.06;102552.51;460617;115;922987;-72
2022/11/29 04:46:24;;;;;;;2.66;1.63;;;;;;;-0.37;65.09;102555.19;459247;115;922512;-72
2022/11/29 04:47:37;;;;;;;3.02;1.80;;;;;;;-0.36;65.06;102555.09;460642;115;922564;-72
2022/11/29 04:49:09;;;;;;;2.32;1.53;;;;;;;-0.34;65.12;102555.02;460659;115;922841;-72
2022/11/29 04:50:15;;;;;;;3.66;1.72;;;;;;;-0.34;65.11;102561.23;460631;115;923112;-71
2022/11/29 04:51:33;;;;;;;2.89;1.61;;;;;;;-0.34;65.03;102553.20;460662;115;922543;-73
2022/11/29 04:52:55;;;;;;;1.99;1.73;;;;;;;-0.34;64.92;102560.38;459527;115;922420;-73
2022/11/29 04:54:08;;;;;;;2.08;1.62;;;;;;;-0.36;64.97;102563.14;459325;115;922574;-73
2022/11/29 04:55:32;;;;;;;1.98;1.67;;;;;;;-0.35;64.87;102564.00;460649;115;922499;-72
2022/11/29 04:56:57;;;;;;;2.11;1.66;;;;;;;-0.35;64.88;102567.55;460635;115;923185;-73
2022/11/29 04:58:12;;;;;;;2.27;1.67;;;;;;;-0.33;64.91;102575.50;460423;115;922554;-73
2022/11/29 04:59:31;;;;;;;2.09;1.74;;;;;;;-0.35;64.88;102570.23;460656;115;922903;-73
2022/11/29 05:00:38;;;;;;;2.72;1.61;;;;;;;-0.33;64.98;102578.19;460376;115;923254;-72
2022/11/29 05:01:47;;;;;;;1.70;1.58;;;;;;;-0.34;64.92;102580.00;460478;115;922815;-73
2022/11/29 05:03:03;;;;;;;1.73;1.57;;;;;;;-0.34;64.77;102573.77;460708;115;922604;-72
2022/11/29 05:04:16;;;;;;;1.91;1.70;;;;;;;-0.35;64.72;102580.09;460507;115;922538;-72
2022/11/29 05:05:23;;;;;;;3.15;1.60;;;;;;;-0.38;64.58;102570.41;460538;115;922536;-72
2022/11/29 05:06:36;;;;;;;2.21;1.93;;;;;;;-0.40;64.52;102579.52;460185;115;922504;-72
2022/11/29 05:07:45;;;;;;;2.26;1.59;;;;;;;-0.42;64.47;102577.78;460631;115;922972;-73
2022/11/29 05:08:54;;;;;;;2.56;2.02;;;;;;;-0.44;64.47;102574.33;460568;115;922745;-73
2022/11/29 05:10:22;;;;;;;2.42;1.98;;;;;;;-0.44;64.50;102578.82;460625;115;922977;-73
2022/11/29 05:11:35;;;;;;;1.92;1.75;;;;;;;-0.44;64.55;102590.41;460560;115;922579;-73
2022/11/29 05:12:58;;;;;;;2.16;1.57;;;;;;;-0.44;64.60;102581.50;455091;115;922501;-72
2022/11/29 05:14:33;;;;;;;2.49;1.76;;;;;;;-0.43;64.57;102584.09;453811;117;922781;-72
2022/11/29 05:15:43;;;;;;;2.63;1.89;;;;;;;-0.43;64.56;102594.81;453784;117;922499;-72
2022/11/29 05:16:56;;;;;;;2.03;1.79;;;;;;;-0.44;64.56;102598.44;453780;117;922468;-71
2022/11/29 05:18:02;;;;;;;2.56;1.69;;;;;;;-0.44;64.54;102589.54;452603;117;922867;-72
2022/11/29 05:19:36;;;;;;;2.07;1.71;;;;;;;-0.44;64.53;102589.54;453687;117;922632;-73
2022/11/29 05:21:01;;;;;;;2.57;2.06;;;;;;;-0.45;64.50;102602.11;453780;117;922675;-72
2022/11/29 05:22:42;;;;;;;1.99;1.79;;;;;;;-0.45;64.49;102609.28;453748;116;922946;-73
2022/11/29 05:24:07;;;;;;;2.19;1.86;;;;;;;-0.48;64.51;102598.73;455874;115;922678;-72
2022/11/29 05:25:23;;;;;;;2.66;2.18;;;;;;;-0.50;64.50;102611.38;453966;116;923067;-73
2022/11/29 05:26:41;;;;;;;2.65;1.96;;;;;;;-0.51;64.55;102613.20;458099;115;922448;-72
2022/11/29 05:28:05;;;;;;;2.55;2.26;;;;;;;-0.51;64.58;102612.33;461182;115;922619;-72
2022/11/29 05:29:22;;;;;;;5.46;2.17;;;;;;;-0.53;64.44;102607.06;460639;115;922955;-72
2022/11/29 05:30:29;;;;;;;2.93;2.52;;;;;;;-0.54;64.46;102618.72;460791;115;922570;-71
2022/11/29 05:31:38;;;;;;;3.15;2.13;;;;;;;-0.53;64.49;102619.59;460311;115;922699;-72
2022/11/29 05:33:00;;;;;;;3.38;2.12;;;;;;;-0.52;64.57;102618.64;461262;115;922574;-72
2022/11/29 05:34:22;;;;;;;2.82;1.87;;;;;;;-0.51;64.63;102615.88;459950;115;922644;-71
2022/11/29 05:35:47;;;;;;;1.80;1.70;;;;;;;-0.50;64.44;102619.42;461179;115;922611;-72
2022/11/29 05:37:00;;;;;;;3.19;2.01;;;;;;;-0.52;64.32;102624.86;461210;115;922645;-72
2022/11/29 05:38:24;;;;;;;2.81;1.92;;;;;;;-0.52;64.33;102634.72;461214;115;922587;-72
2022/11/29 05:39:40;;;;;;;5.11;1.77;;;;;;;-0.51;64.30;102641.80;460005;115;922523;-72
2022/11/29 05:40:47;;;;;;;2.39;1.64;;;;;;;-0.52;64.25;102640.08;461204;115;922541;-72
2022/11/29 05:42:05;;;;;;;3.67;1.90;;;;;;;-0.53;64.27;102641.89;458542;115;923036;-72
2022/11/29 05:43:29;;;;;;;1.87;1.57;;;;;;;-0.54;64.20;102648.20;460183;115;922486;-72
2022/11/29 05:44:45;;;;;;;2.51;1.66;;;;;;;-0.53;64.04;102654.42;461187;115;922656;-72
2022/11/29 05:46:01;;;;;;;1.58;1.48;;;;;;;-0.56;64.10;102647.45;461363;115;922459;-72
2022/11/29 05:47:08;;;;;;;2.17;1.69;;;;;;;-0.56;64.07;102649.27;461746;115;922626;-73
2022/11/29 05:48:44;;;;;;;3.60;1.78;;;;;;;-0.59;64.04;102647.62;461716;115;922524;-72
2022/11/29 05:50:10;;;;;;;2.43;1.68;;;;;;;-0.59;64.04;102655.66;461682;115;922478;-72
2022/11/29 05:51:37;;;;;;;1.59;1.47;;;;;;;-0.59;63.92;102655.66;461743;115;922495;-72
2022/11/29 05:53:05;;;;;;;2.56;1.56;;;;;;;-0.60;63.93;102661.96;445932;119;922723;-73
2022/11/29 05:54:18;;;;;;;2.69;1.79;;;;;;;-0.61;63.89;102667.44;449128;115;923211;-73
2022/11/29 05:55:30;;;;;;;2.62;1.86;;;;;;;-0.63;63.88;102672.01;454025;115;922629;-73
2022/11/29 05:56:55;;;;;;;2.27;1.50;;;;;;;-0.64;63.88;102668.47;461140;115;922764;-72
2022/11/29 05:58:14;;;;;;;1.76;1.52;;;;;;;-0.63;63.92;102669.33;461803;115;922545;-72
2022/11/29 05:59:26;;;;;;;2.08;1.64;;;;;;;-0.63;63.91;102669.33;461768;115;922644;-72
2022/11/29 06:00:39;;;;;;;5.66;1.93;;;;;;;-0.64;63.86;102671.14;461163;115;922600;-72
2022/11/29 06:02:20;;;;;;;1.69;1.54;;;;;;;-0.63;63.84;102675.55;461560;115;922490;-72
2022/11/29 06:03:42;;;;;;;2.98;1.59;;;;;;;-0.62;63.83;102676.42;461725;115;922558;-73
2022/11/29 06:05:07;;;;;;;4.87;1.83;;;;;;;-0.63;63.79;102678.23;460814;115;922494;-73
2022/11/29 06:06:28;;;;;;;3.12;1.72;;;;;;;-0.64;63.71;102671.14;461682;115;922437;-73
2022/11/29 06:07:38;;;;;;;2.28;1.59;;;;;;;-0.65;63.67;102676.58;449494;118;923086;-72
2022/11/29 06:09:07;;;;;;;2.41;1.95;;;;;;;-0.66;63.69;102681.08;455748;115;922791;-72
2022/11/29 06:10:17;;;;;;;2.23;1.64;;;;;;;-0.65;63.70;102679.27;461742;115;922563;-72
2022/11/29 06:11:30;;;;;;;2.58;1.70;;;;;;;-0.65;63.76;102671.23;461680;115;922360;-72
2022/11/29 06:12:34;;;;;;;1.64;1.49;;;;;;;-0.64;63.71;102681.86;461193;115;922926;-72
2022/11/29 06:13:58;;;;;;;2.98;1.82;;;;;;;-0.63;63.53;102682.72;461781;115;922476;-72
2022/11/29 06:15:30;;;;;;;2.41;1.78;;;;;;;-0.62;63.62;102684.45;461737;115;922498;-73
2022/11/29 06:16:55;;;;;;;2.92;1.90;;;;;;;-0.61;63.44;102686.19;461685;115;922478;-71
2022/11/29 06:18:07;;;;;;;3.28;1.96;;;;;;;-0.62;63.41;102684.45;461730;115;923028;-72
2022/11/29 06:19:38;;;;;;;2.57;2.05;;;;;;;-0.62;63.40;102685.32;461696;115;922494;-72
2022/11/29 06:21:00;;;;;;;2.93;1.73;;;;;;;-0.63;63.38;102683.59;461053;115;922626;-72
2022/11/29 06:22:38;;;;;;;2.49;1.74;;;;;;;-0.63;63.25;102690.77;461637;115;928700;-72
2022/11/29 06:24:01;;;;;;;2.95;2.23;;;;;;;-0.65;63.32;102690.84;458695;115;922613;-71
2022/11/29 06:25:08;;;;;;;4.53;1.96;;;;;;;-0.65;63.41;102693.52;461707;115;922636;-72
2022/11/29 06:26:39;;;;;;;2.39;1.78;;;;;;;-0.66;63.30;102694.47;465141;113;922666;-72
2022/11/29 06:28:08;;;;;;;2.02;1.82;;;;;;;-0.64;63.37;102689.03;453145;117;922913;-72
2022/11/29 06:29:35;;;;;;;3.76;2.07;;;;;;;-0.62;63.37;102689.81;453081;117;922678;-72
2022/11/29 06:30:42;;;;;;;3.84;2.15;;;;;;;-0.61;63.36;102684.37;453067;117;922702;-72